createdAt,value
2017-04-02T00:01:41.308Z,99.99
2017-04-02T00:03:17.495Z,99.99
2017-04-02T00:04:02.874Z,99.99
2017-04-02T00:05:19.008Z,99.99
2017-04-02T00:06:11.000Z,99.99
2017-04-02T00:08:18.898Z,99.99
2017-04-02T00:10:10.552Z,99.99
2017-04-02T00:13:11.098Z,99.99
2017-04-02T00:16:19.472Z,99.99
2017-04-02T00:17:51.942Z,99.99
2017-04-02T00:18:37.263Z,99.99
2017-04-02T00:25:54.037Z,99.99
2017-04-02T00:29:02.011Z,99.99
2017-04-02T00:31:23.014Z,99.99
2017-04-02T00:34:50.343Z,99.99
2017-04-02T00:36:40.752Z,99.99
2017-04-02T00:38:27.881Z,99.99
2017-04-02T00:40:25.490Z,99.99
2017-04-02T00:43:04.322Z,99.99
2017-04-02T00:44:25.437Z,99.99
2017-04-02T00:45:41.590Z,99.99
2017-04-02T00:48:00.241Z,99.99
2017-04-02T00:50:01.553Z,99.99
2017-04-02T00:56:46.456Z,99.99
2017-04-02T00:59:51.360Z,99.99
2017-04-02T01:06:13.504Z,99.99
2017-04-02T01:07:35.029Z,99.99
2017-04-02T01:27:09.950Z,99.99
2017-04-02T01:28:46.070Z,99.99
2017-04-02T01:32:56.855Z,99.99
2017-04-02T01:36:03.769Z,99.58
2017-04-02T01:43:50.484Z,95.84
2017-04-02T01:44:41.307Z,95.36
2017-04-02T01:46:35.721Z,94.69
2017-04-02T01:49:38.946Z,92.97
2017-04-02T01:53:44.374Z,90.95
2017-04-02T01:56:16.643Z,90.76
2017-04-02T01:57:33.093Z,90.86
2017-04-02T01:58:32.579Z,90.95
2017-04-02T02:00:40.396Z,90.86
2017-04-02T02:02:16.650Z,90.38
2017-04-02T02:03:33.508Z,90.38
2017-04-02T02:04:49.869Z,89.9
2017-04-02T02:14:17.556Z,86.16
2017-04-02T02:17:22.190Z,86.25
2017-04-02T02:19:31.785Z,86.64
2017-04-02T02:22:16.276Z,86.4
2017-04-02T02:24:04.212Z,86.4
2017-04-02T02:24:49.359Z,86.3
2017-04-02T02:26:36.477Z,86.58
2017-04-02T02:28:26.629Z,86.88
2017-04-02T02:32:07.806Z,87.16
2017-04-02T02:33:52.352Z,87.35
2017-04-02T02:35:24.254Z,87.26
2017-04-02T02:37:25.505Z,87.07
2017-04-02T02:38:44.918Z,87.07
2017-04-02T02:40:07.510Z,87.26
2017-04-02T02:44:00.540Z,87.5
2017-04-02T02:45:48.564Z,86.74
2017-04-02T02:46:03.746Z,86.64
2017-04-02T02:47:50.866Z,86.97
2017-04-02T02:49:37.966Z,86.78
2017-04-02T02:50:07.278Z,86.68
2017-04-02T02:53:13.037Z,86.78
2017-04-02T02:56:04.566Z,87.07
2017-04-02T02:58:29.158Z,87.74
2017-04-02T02:59:36.316Z,87.55
2017-04-02T03:00:54.560Z,88.22
2017-04-02T03:05:30.822Z,88.89
2017-04-02T03:07:17.961Z,89.04
2017-04-02T03:08:34.783Z,88.17
2017-04-02T03:11:57.223Z,88.98
2017-04-02T03:14:30.321Z,88.84
2017-04-02T03:15:45.140Z,88.56
2017-04-02T03:21:02.651Z,88.98
2017-04-02T03:23:04.009Z,88.89
2017-04-02T03:27:14.367Z,88.89
2017-04-02T03:28:30.532Z,88.98
2017-04-02T03:30:33.028Z,87.64
2017-04-02T03:47:09.465Z,76.62
2017-04-02T03:49:44.468Z,73.57
2017-04-02T03:54:10.480Z,71.94
2017-04-02T03:54:28.549Z,71.84
2017-04-02T03:54:42.788Z,71.56
2017-04-02T03:55:28.744Z,71.75
2017-04-02T03:57:22.187Z,71.27
2017-04-02T03:58:02.153Z,71.46
2017-04-02T04:01:54.330Z,71.66
2017-04-02T04:02:08.457Z,71.56
2017-04-02T04:02:53.644Z,71.46
2017-04-02T04:04:25.872Z,71.27
2017-04-02T04:04:40.011Z,71.27
2017-04-02T04:04:54.293Z,71.66
2017-04-02T04:06:24.637Z,70.5
2017-04-02T04:06:38.839Z,69.74
2017-04-02T04:06:53.333Z,69.17
2017-04-02T04:08:40.485Z,67.34
2017-04-02T04:10:41.806Z,66
2017-04-02T04:11:27.614Z,65.33
2017-04-02T04:11:41.711Z,65.33
2017-04-02T04:13:12.801Z,62.74
2017-04-02T04:14:43.186Z,62.84
2017-04-02T04:15:59.328Z,62.93
2017-04-02T04:20:33.073Z,63.03
2017-04-02T04:23:36.415Z,62.65
2017-04-02T04:24:52.580Z,62.84
2017-04-02T04:25:37.709Z,62.93
2017-04-02T04:26:22.865Z,63.03
2017-04-02T04:27:08.049Z,62.26
2017-04-02T04:27:22.151Z,62.17
2017-04-02T04:28:38.279Z,62.36
2017-04-02T04:30:39.555Z,61.4
2017-04-02T04:30:53.641Z,61.5
2017-04-02T04:31:07.777Z,61.6
2017-04-02T04:31:52.913Z,61.4
2017-04-02T04:33:23.300Z,61.21
2017-04-02T04:34:39.414Z,60.93
2017-04-02T04:35:24.519Z,60.93
2017-04-02T04:35:38.625Z,60.93
2017-04-02T04:36:37.817Z,60.73
2017-04-02T04:37:53.898Z,60.35
2017-04-02T04:38:08.055Z,59.87
2017-04-02T04:38:53.212Z,59.87
2017-04-02T04:39:07.404Z,60.25
2017-04-02T04:39:21.636Z,59.97
2017-04-02T04:39:35.818Z,60.06
2017-04-02T04:40:21.068Z,60.06
2017-04-02T04:41:37.174Z,59.77
2017-04-02T04:41:51.381Z,59.77
2017-04-02T04:42:36.512Z,59.87
2017-04-02T04:42:50.650Z,59.58
2017-04-02T04:43:04.814Z,59.3
2017-04-02T04:43:18.895Z,59.48
2017-04-02T04:44:35.082Z,59.87
2017-04-02T04:44:49.301Z,59.39
2017-04-02T04:45:34.494Z,59.3
2017-04-02T04:46:50.675Z,59.58
2017-04-02T04:47:04.866Z,59.48
2017-04-02T04:52:23.685Z,59.48
2017-04-02T04:54:24.935Z,59.11
2017-04-02T04:55:41.045Z,59.01
2017-04-02T04:56:57.201Z,58.53
2017-04-02T04:57:42.313Z,58.53
2017-04-02T04:57:56.459Z,58.62
2017-04-02T04:58:41.655Z,58.72
2017-04-02T05:00:57.087Z,57.38
2017-04-02T05:02:13.221Z,56.71
2017-04-02T05:02:58.404Z,56.52
2017-04-02T05:03:43.597Z,56.52
2017-04-02T05:04:43.044Z,56.42
2017-04-02T05:04:57.198Z,56.52
2017-04-02T05:06:58.505Z,56.61
2017-04-02T05:07:43.678Z,56.52
2017-04-02T05:08:59.839Z,56.61
2017-04-02T05:09:14.028Z,56.52
2017-04-02T05:09:28.216Z,56.71
2017-04-02T05:10:13.394Z,56.42
2017-04-02T05:10:27.526Z,56.81
2017-04-02T05:11:57.795Z,56.61
2017-04-02T05:12:11.982Z,56.9
2017-04-02T05:12:57.157Z,56.99
2017-04-02T05:13:42.330Z,56.99
2017-04-02T05:13:56.544Z,57.09
2017-04-02T05:14:41.697Z,56.81
2017-04-02T05:15:41.033Z,56.9
2017-04-02T05:16:26.162Z,56.42
2017-04-02T05:16:40.313Z,56.52
2017-04-02T05:16:54.491Z,56.71
2017-04-02T05:19:26.873Z,56.61
2017-04-02T05:19:41.034Z,56.32
2017-04-02T05:19:55.259Z,56.42
2017-04-02T05:20:09.483Z,56.52
2017-04-02T05:22:10.816Z,56.52
2017-04-02T05:22:25.013Z,56.52
2017-04-02T05:22:39.170Z,56.81
2017-04-02T05:23:24.325Z,56.42
2017-04-02T05:24:09.506Z,56.61
2017-04-02T05:24:23.693Z,56.61
2017-04-02T05:25:08.831Z,56.42
2017-04-02T05:25:22.992Z,56.52
2017-04-02T05:25:37.140Z,56.42
2017-04-02T05:26:22.316Z,56.42
2017-04-02T05:28:54.507Z,56.9
2017-04-02T05:29:39.677Z,56.52
2017-04-02T05:29:53.857Z,56.32
2017-04-02T05:32:26.122Z,56.42
2017-04-02T05:32:40.225Z,56.42
2017-04-02T05:32:54.327Z,56.52
2017-04-02T05:33:39.421Z,56.32
2017-04-02T05:33:53.609Z,56.71
2017-04-02T05:36:26.106Z,56.42
2017-04-02T05:37:42.236Z,56.23
2017-04-02T05:38:27.404Z,56.04
2017-04-02T05:38:41.555Z,55.94
2017-04-02T05:39:26.713Z,55.75
2017-04-02T05:39:40.861Z,55.56
2017-04-02T05:41:43.092Z,55.75
2017-04-02T05:42:33.237Z,55.85
2017-04-02T05:45:05.697Z,55.75
2017-04-02T05:45:19.801Z,55.75
2017-04-02T05:46:15.487Z,55.75
2017-04-02T05:47:00.619Z,55.85
2017-04-02T05:47:45.749Z,55.46
2017-04-02T05:47:59.962Z,55.56
2017-04-02T05:48:45.142Z,55.75
2017-04-02T05:49:30.323Z,55.94
2017-04-02T05:49:48.343Z,56.52
2017-04-02T05:50:02.546Z,57.48
2017-04-02T05:50:58.434Z,58.34
2017-04-02T05:51:43.703Z,59.23
2017-04-02T05:53:45.012Z,59.33
2017-04-02T05:55:46.316Z,59.8
2017-04-02T05:56:31.426Z,59.61
2017-04-02T05:57:10.199Z,59.97
2017-04-02T05:57:24.396Z,60
2017-04-02T05:58:19.838Z,60.28
2017-04-02T05:59:05.081Z,60.06
2017-04-02T05:59:50.231Z,60.09
2017-04-02T06:02:17.236Z,59.77
2017-04-02T06:02:33.438Z,59.68
2017-04-02T06:02:50.579Z,59.68
2017-04-02T06:03:15.804Z,59.48
2017-04-02T06:03:40.544Z,59.39
2017-04-02T06:03:54.673Z,59.39
2017-04-02T06:04:08.983Z,59.8
2017-04-02T06:04:42.405Z,59.71
2017-04-02T06:04:56.605Z,59.3
2017-04-02T06:05:10.734Z,59.39
2017-04-02T06:05:26.155Z,59.3
2017-04-02T06:05:40.418Z,59.39
2017-04-02T06:05:54.642Z,59.77
2017-04-02T06:06:09.613Z,59.77
2017-04-02T06:06:24.901Z,59.39
2017-04-02T06:06:39.054Z,59.3
2017-04-02T06:06:53.667Z,59.48
2017-04-02T06:07:08.452Z,59.3
2017-04-02T06:07:28.737Z,59.48
2017-04-02T06:07:44.082Z,59.68
2017-04-02T06:07:58.287Z,59.87
2017-04-02T06:08:12.407Z,59.58
2017-04-02T06:08:26.583Z,59.87
2017-04-02T06:08:40.696Z,59.52
2017-04-02T06:08:54.831Z,59.3
2017-04-02T06:09:08.937Z,59.39
2017-04-02T06:09:23.072Z,59.11
2017-04-02T06:09:37.221Z,59.01
2017-04-02T06:09:51.381Z,59.2
2017-04-02T06:10:05.523Z,59.01
2017-04-02T06:10:20.625Z,59.01
2017-04-02T06:10:34.785Z,59.2
2017-04-02T06:10:49.674Z,59.2
2017-04-02T06:11:04.078Z,59.23
2017-04-02T06:11:18.208Z,59.23
2017-04-02T06:11:32.409Z,59.2
2017-04-02T06:12:05.883Z,59.01
2017-04-02T06:12:20.070Z,59.11
2017-04-02T06:12:34.281Z,58.81
2017-04-02T06:12:48.438Z,59.2
2017-04-02T06:13:02.612Z,58.91
2017-04-02T06:13:16.757Z,59.2
2017-04-02T06:13:30.854Z,59.39
2017-04-02T06:13:45.173Z,59.52
2017-04-02T06:13:59.338Z,59.48
2017-04-02T06:14:13.489Z,59.11
2017-04-02T06:14:27.630Z,59.39
2017-04-02T06:14:41.756Z,59.01
2017-04-02T06:14:55.859Z,59.2
2017-04-02T06:15:10.004Z,59.23
2017-04-02T06:15:24.118Z,59.39
2017-04-02T06:15:38.243Z,59.87
2017-04-02T06:15:52.386Z,60
2017-04-02T06:16:06.501Z,60.09
2017-04-02T06:16:20.675Z,60.09
2017-04-02T06:16:35.055Z,59.97
2017-04-02T06:16:49.166Z,60
2017-04-02T06:17:03.342Z,60.35
2017-04-02T06:17:17.476Z,60.35
2017-04-02T06:17:31.645Z,60.28
2017-04-02T06:17:45.836Z,60.38
2017-04-02T06:17:59.991Z,60.47
2017-04-02T06:18:14.148Z,60.76
2017-04-02T06:18:28.297Z,61.02
2017-04-02T06:18:42.400Z,61.5
2017-04-02T06:18:56.553Z,61.5
2017-04-02T06:19:10.744Z,61.98
2017-04-02T06:19:24.872Z,62.07
2017-04-02T06:19:39.069Z,61.98
2017-04-02T06:19:53.201Z,62.17
2017-04-02T06:20:07.347Z,62.17
2017-04-02T06:20:21.420Z,62.07
2017-04-02T06:20:35.567Z,62.1
2017-04-02T06:20:49.649Z,62.3
2017-04-02T06:21:03.760Z,62.17
2017-04-02T06:21:17.890Z,62.3
2017-04-02T06:21:32.048Z,62.26
2017-04-02T06:21:46.269Z,62.17
2017-04-02T06:22:00.407Z,62.07
2017-04-02T06:22:14.805Z,62.17
2017-04-02T06:22:28.961Z,62.07
2017-04-02T06:22:43.063Z,62.17
2017-04-02T06:22:57.196Z,62.3
2017-04-02T06:23:11.365Z,62.2
2017-04-02T06:23:25.433Z,62.01
2017-04-02T06:23:39.595Z,62.3
2017-04-02T06:23:53.692Z,62.3
2017-04-02T06:24:07.815Z,62.3
2017-04-02T06:24:21.935Z,62.2
2017-04-02T06:24:36.082Z,62.1
2017-04-02T06:24:50.228Z,62.39
2017-04-02T06:25:04.396Z,62.39
2017-04-02T06:25:18.607Z,62.2
2017-04-02T06:25:32.789Z,62.01
2017-04-02T06:25:46.884Z,62.39
2017-04-02T06:26:01.045Z,62.77
2017-04-02T06:26:15.868Z,62.59
2017-04-02T06:26:29.988Z,62.77
2017-04-02T06:26:44.074Z,62.77
2017-04-02T06:26:58.210Z,62.59
2017-04-02T06:27:12.366Z,62.59
2017-04-02T06:27:26.530Z,62.68
2017-04-02T06:27:40.705Z,62.59
2017-04-02T06:27:54.885Z,62.49
2017-04-02T06:28:09.004Z,62.39
2017-04-02T06:28:23.119Z,62.77
2017-04-02T06:28:37.257Z,62.3
2017-04-02T06:28:51.432Z,62.96
2017-04-02T06:29:05.567Z,63.06
2017-04-02T06:29:19.702Z,63.13
2017-04-02T06:29:34.034Z,63.83
2017-04-02T06:29:48.127Z,64.22
2017-04-02T06:30:02.283Z,64.79
2017-04-02T06:30:16.448Z,64.18
2017-04-02T06:30:30.646Z,63.92
2017-04-02T06:30:44.701Z,63.83
2017-04-02T06:30:58.818Z,63.83
2017-04-02T06:31:13.012Z,64.02
2017-04-02T06:31:27.217Z,63.45
2017-04-02T06:31:41.353Z,63.64
2017-04-02T06:31:55.466Z,63.45
2017-04-02T06:32:09.614Z,63.73
2017-04-02T06:32:23.759Z,63.64
2017-04-02T06:32:37.804Z,63.92
2017-04-02T06:32:51.966Z,63.54
2017-04-02T06:33:06.134Z,63.64
2017-04-02T06:33:20.267Z,63.73
2017-04-02T06:33:34.423Z,63.45
2017-04-02T06:33:48.527Z,63.73
2017-04-02T06:34:02.658Z,63.73
2017-04-02T06:34:16.762Z,63.83
2017-04-02T06:34:30.876Z,63.64
2017-04-02T06:34:45.018Z,63.54
2017-04-02T06:34:59.163Z,63.54
2017-04-02T06:35:13.333Z,63.54
2017-04-02T06:35:27.486Z,63.54
2017-04-02T06:35:41.634Z,63.45
2017-04-02T06:35:55.770Z,63.83
2017-04-02T06:36:09.931Z,63.73
2017-04-02T06:36:24.065Z,63.83
2017-04-02T06:36:38.225Z,63.83
2017-04-02T06:36:52.369Z,64.02
2017-04-02T06:37:06.505Z,63.35
2017-04-02T06:37:20.679Z,63.22
2017-04-02T06:37:34.838Z,63.26
2017-04-02T06:37:48.957Z,63.35
2017-04-02T06:38:03.060Z,63.26
2017-04-02T06:38:17.190Z,63.45
2017-04-02T06:38:31.378Z,63.35
2017-04-02T06:38:45.464Z,63.26
2017-04-02T06:38:59.619Z,63.35
2017-04-02T06:39:13.761Z,63.45
2017-04-02T06:39:27.892Z,63.35
2017-04-02T06:39:41.988Z,63.35
2017-04-02T06:39:56.083Z,63.64
2017-04-02T06:40:10.243Z,64.02
2017-04-02T06:40:24.347Z,63.92
2017-04-02T06:40:38.741Z,63.92
2017-04-02T06:40:52.835Z,63.83
2017-04-02T06:41:06.952Z,63.8
2017-04-02T06:41:21.072Z,63.89
2017-04-02T06:41:35.259Z,63.83
2017-04-02T06:41:49.446Z,63.73
2017-04-02T06:42:03.603Z,63.92
2017-04-02T06:42:17.788Z,63.26
2017-04-02T06:42:31.965Z,62.96
2017-04-02T06:42:46.075Z,63.16
2017-04-02T06:43:00.237Z,63.35
2017-04-02T06:43:14.394Z,63.16
2017-04-02T06:43:28.534Z,63.45
2017-04-02T06:43:42.712Z,63.06
2017-04-02T06:43:56.881Z,63.73
2017-04-02T06:44:11.060Z,63.45
2017-04-02T06:44:25.155Z,63.73
2017-04-02T06:44:39.308Z,64.02
2017-04-02T06:44:53.488Z,63.92
2017-04-02T06:45:07.569Z,63.83
2017-04-02T06:45:21.752Z,63.54
2017-04-02T06:45:35.938Z,63.83
2017-04-02T06:45:50.122Z,63.92
2017-04-02T06:46:04.268Z,64.12
2017-04-02T06:46:18.340Z,64.22
2017-04-02T06:46:32.477Z,64.79
2017-04-02T06:46:46.626Z,64.79
2017-04-02T06:47:00.752Z,64.5
2017-04-02T06:47:14.918Z,64.22
2017-04-02T06:47:29.070Z,64.31
2017-04-02T06:47:43.172Z,64.79
2017-04-02T06:47:57.286Z,64.79
2017-04-02T06:48:11.450Z,64.79
2017-04-02T06:48:25.660Z,64.5
2017-04-02T06:48:39.871Z,64.79
2017-04-02T06:48:54.067Z,64.5
2017-04-02T06:49:08.238Z,64.02
2017-04-02T06:49:22.336Z,64.59
2017-04-02T06:49:36.449Z,64.59
2017-04-02T06:49:50.625Z,64.69
2017-04-02T06:50:04.833Z,64.31
2017-04-02T06:50:19.046Z,64.5
2017-04-02T06:50:33.236Z,64.4
2017-04-02T06:50:47.471Z,64.02
2017-04-02T06:51:01.608Z,64.02
2017-04-02T06:51:15.721Z,64.31
2017-04-02T06:51:29.846Z,63.92
2017-04-02T06:51:44.005Z,64.02
2017-04-02T06:51:58.236Z,63.92
2017-04-02T06:52:12.332Z,63.83
2017-04-02T06:52:26.438Z,64.02
2017-04-02T06:52:40.688Z,64.02
2017-04-02T06:52:54.779Z,64.02
2017-04-02T06:53:08.901Z,64.4
2017-04-02T06:53:23.027Z,64.22
2017-04-02T06:53:37.141Z,64.22
2017-04-02T06:53:51.263Z,64.22
2017-04-02T06:54:05.429Z,64.79
2017-04-02T06:54:19.584Z,64.4
2017-04-02T06:54:33.691Z,64.31
2017-04-02T06:54:47.853Z,64.4
2017-04-02T06:55:02.035Z,63.92
2017-04-02T06:55:16.155Z,63.64
2017-04-02T06:55:30.317Z,63.92
2017-04-02T06:55:44.515Z,64.02
2017-04-02T06:55:58.587Z,64.02
2017-04-02T06:56:12.753Z,64.12
2017-04-02T06:56:26.804Z,63.83
2017-04-02T06:56:40.940Z,63.64
2017-04-02T06:56:55.047Z,63.64
2017-04-02T06:57:09.163Z,63.45
2017-04-02T06:57:23.332Z,63.64
2017-04-02T06:57:37.497Z,63.73
2017-04-02T06:57:51.610Z,63.92
2017-04-02T06:58:05.789Z,63.83
2017-04-02T06:58:19.937Z,63.92
2017-04-02T06:58:34.059Z,63.83
2017-04-02T06:58:48.257Z,63.83
2017-04-02T06:59:02.406Z,63.73
2017-04-02T06:59:16.486Z,63.64
2017-04-02T06:59:30.645Z,63.92
2017-04-02T06:59:44.836Z,63.64
2017-04-02T06:59:58.979Z,64.02
2017-04-02T07:00:13.086Z,63.83
2017-04-02T07:00:27.244Z,63.83
2017-04-02T07:00:41.375Z,63.83
2017-04-02T07:00:55.509Z,63.92
2017-04-02T07:01:09.613Z,63.83
2017-04-02T07:01:23.757Z,63.73
2017-04-02T07:01:37.871Z,63.83
2017-04-02T07:01:52.024Z,63.73
2017-04-02T07:02:06.128Z,63.73
2017-04-02T07:02:20.275Z,63.54
2017-04-02T07:02:34.394Z,63.06
2017-04-02T07:02:48.556Z,63.73
2017-04-02T07:03:02.668Z,63.32
2017-04-02T07:03:16.834Z,63.35
2017-04-02T07:03:30.959Z,63.22
2017-04-02T07:03:45.083Z,63.06
2017-04-02T07:03:59.258Z,63.26
2017-04-02T07:04:13.385Z,63.16
2017-04-02T07:04:27.552Z,63.26
2017-04-02T07:04:41.675Z,63.16
2017-04-02T07:04:55.804Z,63.06
2017-04-02T07:05:10.019Z,63.16
2017-04-02T07:05:24.145Z,63.06
2017-04-02T07:05:38.248Z,63.16
2017-04-02T07:05:52.465Z,63.16
2017-04-02T07:06:06.677Z,63.16
2017-04-02T07:06:20.802Z,63.03
2017-04-02T07:06:34.863Z,63.06
2017-04-02T07:06:49.018Z,63.26
2017-04-02T07:07:03.175Z,63.26
2017-04-02T07:07:17.335Z,63.64
2017-04-02T07:07:31.484Z,64.09
2017-04-02T07:07:45.702Z,63.7
2017-04-02T07:07:59.892Z,63.89
2017-04-02T07:08:14.013Z,63.45
2017-04-02T07:08:28.090Z,63.32
2017-04-02T07:08:42.256Z,63.42
2017-04-02T07:08:56.443Z,63.8
2017-04-02T07:09:10.621Z,63.89
2017-04-02T07:09:24.728Z,63.83
2017-04-02T07:09:38.888Z,63.89
2017-04-02T07:09:53.060Z,63.99
2017-04-02T07:10:07.336Z,63.13
2017-04-02T07:10:21.463Z,63.22
2017-04-02T07:10:35.560Z,63.13
2017-04-02T07:10:49.731Z,62.84
2017-04-02T07:11:03.866Z,63.22
2017-04-02T07:11:18.028Z,63.13
2017-04-02T07:11:32.139Z,62.93
2017-04-02T07:11:46.234Z,63.03
2017-04-02T07:12:00.358Z,62.74
2017-04-02T07:12:14.494Z,63.03
2017-04-02T07:12:28.655Z,62.84
2017-04-02T07:12:42.787Z,62.93
2017-04-02T07:12:56.893Z,63.03
2017-04-02T07:13:10.997Z,62.93
2017-04-02T07:13:25.083Z,62.55
2017-04-02T07:13:39.246Z,62.74
2017-04-02T07:13:53.419Z,62.74
2017-04-02T07:14:07.608Z,62.65
2017-04-02T07:14:21.747Z,62.74
2017-04-02T07:14:35.944Z,62.84
2017-04-02T07:14:50.038Z,62.55
2017-04-02T07:15:04.118Z,62.84
2017-04-02T07:15:18.230Z,62.84
2017-04-02T07:15:32.356Z,62.84
2017-04-02T07:15:46.454Z,62.93
2017-04-02T07:16:00.563Z,63.03
2017-04-02T07:16:14.700Z,62.46
2017-04-02T07:16:28.818Z,62.36
2017-04-02T07:16:42.954Z,62.36
2017-04-02T07:16:57.110Z,62.26
2017-04-02T07:17:11.223Z,62.26
2017-04-02T07:17:25.338Z,62.17
2017-04-02T07:17:39.468Z,62.17
2017-04-02T07:17:53.596Z,62.17
2017-04-02T07:18:07.686Z,62.17
2017-04-02T07:18:21.856Z,62.36
2017-04-02T07:18:36.059Z,63.03
2017-04-02T07:18:50.189Z,62.93
2017-04-02T07:19:04.331Z,62.74
2017-04-02T07:19:18.459Z,62.84
2017-04-02T07:19:32.563Z,62.74
2017-04-02T07:19:46.703Z,62.84
2017-04-02T07:20:00.890Z,62.84
2017-04-02T07:20:14.991Z,62.74
2017-04-02T07:20:29.106Z,62.84
2017-04-02T07:20:43.227Z,62.74
2017-04-02T07:20:57.406Z,62.93
2017-04-02T07:21:11.583Z,62.65
2017-04-02T07:21:25.780Z,62.55
2017-04-02T07:21:39.896Z,62.55
2017-04-02T07:21:54.052Z,62.74
2017-04-02T07:22:08.192Z,62.65
2017-04-02T07:22:22.379Z,62.55
2017-04-02T07:22:36.531Z,62.55
2017-04-02T07:22:50.740Z,62.74
2017-04-02T07:23:04.875Z,62.55
2017-04-02T07:23:19.038Z,62.84
2017-04-02T07:23:33.178Z,63.22
2017-04-02T07:23:47.338Z,63.22
2017-04-02T07:24:01.497Z,63.32
2017-04-02T07:24:15.593Z,63.22
2017-04-02T07:24:29.772Z,63.22
2017-04-02T07:24:43.918Z,63.03
2017-04-02T07:24:58.038Z,63.03
2017-04-02T07:25:12.147Z,63.03
2017-04-02T07:25:26.290Z,63.13
2017-04-02T07:25:40.462Z,63.22
2017-04-02T07:25:54.595Z,63.32
2017-04-02T07:26:08.769Z,63.16
2017-04-02T07:26:22.864Z,63.51
2017-04-02T07:26:37.009Z,63.83
2017-04-02T07:26:51.103Z,63.45
2017-04-02T07:27:05.303Z,63.6
2017-04-02T07:27:19.463Z,64.09
2017-04-02T07:27:33.637Z,64.22
2017-04-02T07:27:47.742Z,64.31
2017-04-02T07:28:01.894Z,64.02
2017-04-02T07:28:16.041Z,64.69
2017-04-02T07:28:30.193Z,64.47
2017-04-02T07:28:44.333Z,64.31
2017-04-02T07:28:58.406Z,64.59
2017-04-02T07:29:12.530Z,64.66
2017-04-02T07:29:26.635Z,64.4
2017-04-02T07:29:40.751Z,64.66
2017-04-02T07:29:54.912Z,64.59
2017-04-02T07:30:08.985Z,64.22
2017-04-02T07:30:23.136Z,63.92
2017-04-02T07:30:37.302Z,63.92
2017-04-02T07:30:51.498Z,63.8
2017-04-02T07:31:05.683Z,63.92
2017-04-02T07:31:19.836Z,63.73
2017-04-02T07:31:34.031Z,64.02
2017-04-02T07:31:48.168Z,64.02
2017-04-02T07:32:02.278Z,63.73
2017-04-02T07:32:16.413Z,63.92
2017-04-02T07:32:30.610Z,64.22
2017-04-02T07:32:44.751Z,64.02
2017-04-02T07:32:58.866Z,63.83
2017-04-02T07:33:13.047Z,63.92
2017-04-02T07:33:27.114Z,63.83
2017-04-02T07:33:41.281Z,64.12
2017-04-02T07:33:55.380Z,64.31
2017-04-02T07:34:09.483Z,64.02
2017-04-02T07:34:23.649Z,64.02
2017-04-02T07:34:37.754Z,63.92
2017-04-02T07:34:51.901Z,64.02
2017-04-02T07:35:06.002Z,63.83
2017-04-02T07:35:20.103Z,63.92
2017-04-02T07:35:34.272Z,64.12
2017-04-02T07:35:48.403Z,64.02
2017-04-02T07:36:02.506Z,63.92
2017-04-02T07:36:16.649Z,64.02
2017-04-02T07:36:30.770Z,64.12
2017-04-02T07:36:44.830Z,64.4
2017-04-02T07:36:58.982Z,64.4
2017-04-02T07:37:13.106Z,64.5
2017-04-02T07:37:27.205Z,64.5
2017-04-02T07:37:41.340Z,64.5
2017-04-02T07:37:55.595Z,64.22
2017-04-02T07:38:09.693Z,64.31
2017-04-02T07:38:23.834Z,64.59
2017-04-02T07:38:37.940Z,64.22
2017-04-02T07:38:52.042Z,64.5
2017-04-02T07:39:06.122Z,64.22
2017-04-02T07:39:20.267Z,64.4
2017-04-02T07:39:34.373Z,64.22
2017-04-02T07:39:48.450Z,64.12
2017-04-02T07:40:02.610Z,64.59
2017-04-02T07:40:16.798Z,64.31
2017-04-02T07:40:30.932Z,64.5
2017-04-02T07:40:45.048Z,64.79
2017-04-02T07:40:59.206Z,64.69
2017-04-02T07:41:13.310Z,64.59
2017-04-02T07:41:27.473Z,64.79
2017-04-02T07:41:41.558Z,64.79
2017-04-02T07:41:55.657Z,64.79
2017-04-02T07:42:09.789Z,64.69
2017-04-02T07:42:23.939Z,64.59
2017-04-02T07:42:38.091Z,64.69
2017-04-02T07:42:52.211Z,64.69
2017-04-02T07:43:06.373Z,64.79
2017-04-02T07:43:20.470Z,64.98
2017-04-02T07:43:34.574Z,64.98
2017-04-02T07:43:48.680Z,64.79
2017-04-02T07:44:02.922Z,64.59
2017-04-02T07:44:17.099Z,64.59
2017-04-02T07:44:31.218Z,64.79
2017-04-02T07:44:45.372Z,64.79
2017-04-02T07:44:59.465Z,64.98
2017-04-02T07:45:13.565Z,64.79
2017-04-02T07:45:27.699Z,64.69
2017-04-02T07:45:41.825Z,64.4
2017-04-02T07:45:55.964Z,64.59
2017-04-02T07:46:10.309Z,64.69
2017-04-02T07:46:24.468Z,64.31
2017-04-02T07:46:38.608Z,64.69
2017-04-02T07:46:52.770Z,64.5
2017-04-02T07:47:06.955Z,64.59
2017-04-02T07:47:21.048Z,64.69
2017-04-02T07:47:35.259Z,65.08
2017-04-02T07:47:49.428Z,64.89
2017-04-02T07:48:03.630Z,64.69
2017-04-02T07:48:17.776Z,64.79
2017-04-02T07:48:31.998Z,64.89
2017-04-02T07:48:46.161Z,64.79
2017-04-02T07:49:00.312Z,64.79
2017-04-02T07:49:14.450Z,64.79
2017-04-02T07:49:28.597Z,64.5
2017-04-02T07:49:42.726Z,64.31
2017-04-02T07:49:56.904Z,64.59
2017-04-02T07:50:11.027Z,64.22
2017-04-02T07:50:25.216Z,64.4
2017-04-02T07:50:39.410Z,64.4
2017-04-02T07:50:53.585Z,64.79
2017-04-02T07:51:07.738Z,64.31
2017-04-02T07:51:21.876Z,64.79
2017-04-02T07:51:35.982Z,64.69
2017-04-02T07:51:50.160Z,64.69
2017-04-02T07:52:04.347Z,64.98
2017-04-02T07:52:18.549Z,64.89
2017-04-02T07:52:32.665Z,64.4
2017-04-02T07:52:46.774Z,64.31
2017-04-02T07:53:00.988Z,64.4
2017-04-02T07:53:15.120Z,64.4
2017-04-02T07:53:29.276Z,64.12
2017-04-02T07:53:43.403Z,64.5
2017-04-02T07:53:57.552Z,64.69
2017-04-02T07:54:11.674Z,64.69
2017-04-02T07:54:25.794Z,64.69
2017-04-02T07:54:39.901Z,64.69
2017-04-02T07:54:53.999Z,64.69
2017-04-02T07:55:08.134Z,64.69
2017-04-02T07:55:22.294Z,64.5
2017-04-02T07:55:36.507Z,64.69
2017-04-02T07:55:50.603Z,64.5
2017-04-02T07:56:04.726Z,64.79
2017-04-02T07:56:18.854Z,64.5
2017-04-02T07:56:32.974Z,64.5
2017-04-02T07:56:47.130Z,64.79
2017-04-02T07:57:01.307Z,64.79
2017-04-02T07:57:15.486Z,64.69
2017-04-02T07:57:29.617Z,64.22
2017-04-02T07:57:43.784Z,64.5
2017-04-02T07:57:57.907Z,64.59
2017-04-02T07:58:12.034Z,64.31
2017-04-02T07:58:26.232Z,64.12
2017-04-02T07:58:40.342Z,64.4
2017-04-02T07:58:54.490Z,63.92
2017-04-02T07:59:08.714Z,63.83
2017-04-02T07:59:22.846Z,63.83
2017-04-02T07:59:37.003Z,64.4
2017-04-02T07:59:51.113Z,64.5
2017-04-02T08:00:05.222Z,64.4
2017-04-02T08:00:19.361Z,64.79
2017-04-02T08:00:33.500Z,64.89
2017-04-02T08:00:47.767Z,64.98
2017-04-02T08:01:01.865Z,65.46
2017-04-02T08:01:16.068Z,65.36
2017-04-02T08:01:30.243Z,65.08
2017-04-02T08:01:44.368Z,65.26
2017-04-02T08:01:58.493Z,65.46
2017-04-02T08:02:12.664Z,65.36
2017-04-02T08:02:26.823Z,65.17
2017-04-02T08:02:40.953Z,65.08
2017-04-02T08:02:55.172Z,65.17
2017-04-02T08:03:09.289Z,65.08
2017-04-02T08:03:23.466Z,65.36
2017-04-02T08:03:37.629Z,65.65
2017-04-02T08:03:51.807Z,65.65
2017-04-02T08:04:05.977Z,65.65
2017-04-02T08:04:20.177Z,65.65
2017-04-02T08:04:34.281Z,65.26
2017-04-02T08:04:48.417Z,65.36
2017-04-02T08:05:02.594Z,65.46
2017-04-02T08:05:16.685Z,65.26
2017-04-02T08:05:30.853Z,65.36
2017-04-02T08:05:44.956Z,65.55
2017-04-02T08:05:59.077Z,65.36
2017-04-02T08:06:13.284Z,65.26
2017-04-02T08:06:27.425Z,65.26
2017-04-02T08:06:41.633Z,65.46
2017-04-02T08:06:55.714Z,65.65
2017-04-02T08:07:09.880Z,65.26
2017-04-02T08:07:23.972Z,65.17
2017-04-02T08:07:38.101Z,65.26
2017-04-02T08:07:52.183Z,65.08
2017-04-02T08:08:06.360Z,65.17
2017-04-02T08:08:20.464Z,65.46
2017-04-02T08:08:34.591Z,64.98
2017-04-02T08:08:48.674Z,64.98
2017-04-02T08:09:02.848Z,64.79
2017-04-02T08:09:16.928Z,64.4
2017-04-02T08:09:31.041Z,64.22
2017-04-02T08:09:45.221Z,64.79
2017-04-02T08:09:59.288Z,64.31
2017-04-02T08:10:13.428Z,64.5
2017-04-02T08:10:27.548Z,64.4
2017-04-02T08:10:41.693Z,64.31
2017-04-02T08:10:55.883Z,64.12
2017-04-02T08:11:09.994Z,63.92
2017-04-02T08:11:24.183Z,64.02
2017-04-02T08:11:38.323Z,64.02
2017-04-02T08:11:52.617Z,64.12
2017-04-02T08:12:06.733Z,63.73
2017-04-02T08:12:20.864Z,63.92
2017-04-02T08:12:35.026Z,63.83
2017-04-02T08:12:49.169Z,63.73
2017-04-02T08:13:03.332Z,63.64
2017-04-02T08:13:17.455Z,63.64
2017-04-02T08:13:31.621Z,63.83
2017-04-02T08:13:45.758Z,63.92
2017-04-02T08:13:59.887Z,63.83
2017-04-02T08:14:14.014Z,63.64
2017-04-02T08:14:28.170Z,63.64
2017-04-02T08:14:42.338Z,63.54
2017-04-02T08:14:56.532Z,63.64